Time;durP1;ratioP1;P1;durP2;ratioP2;P2;SDS_P1;SDS_P2;PMS_P1;PMS_P2;Temp;Humidity;BMP_temperature;BMP_pressure;BME280_temperature;BME280_humidity;BME280_pressure;Samples;Min_cycle;Max_cycle;Signal;HPM_P1;HPM_P2
2023/05/22 00:01:26;;;;;;;7.32;6.72;;;21.00;55.40;;;;;;4998377;28;20225;-80
2023/05/22 00:03:53;;;;;;;7.32;6.68;;;21.00;55.40;;;;;;4998564;28;20204;-80
2023/05/22 00:06:20;;;;;;;7.40;6.70;;;21.00;55.40;;;;;;4998334;28;20534;-80
2023/05/22 00:08:48;;;;;;;7.60;7.00;;;21.00;55.40;;;;;;4998613;28;20246;-80
2023/05/22 00:11:16;;;;;;;7.13;6.53;;;21.00;55.40;;;;;;4996991;28;20221;-80
2023/05/22 00:13:43;;;;;;;6.85;6.35;;;21.00;55.40;;;;;;4998032;28;20446;-80
2023/05/22 00:16:10;;;;;;;6.75;6.22;;;20.90;55.30;;;;;;4997943;28;20204;-80
2023/05/22 00:18:41;;;;;;;7.55;6.85;;;20.90;55.30;;;;;;4997953;28;20203;-80
2023/05/22 00:21:08;;;;;;;7.00;6.40;;;20.90;55.30;;;;;;4998376;28;20231;-80
2023/05/22 00:23:35;;;;;;;7.05;6.45;;;20.90;55.30;;;;;;4998251;28;20200;-80
2023/05/22 00:26:02;;;;;;;7.25;6.55;;;20.90;55.30;;;;;;4997849;28;20614;-79
2023/05/22 00:28:30;;;;;;;7.20;6.60;;;20.90;55.30;;;;;;4997848;28;20225;-79
2023/05/22 00:30:57;;;;;;;7.10;6.47;;;20.90;55.30;;;;;;4997945;28;20598;-79
2023/05/22 00:33:25;;;;;;;7.35;6.75;;;20.90;55.40;;;;;;4998070;28;20316;-79
2023/05/22 00:35:51;;;;;;;7.38;6.70;;;20.80;55.30;;;;;;4997545;28;20288;-79
2023/05/22 00:38:28;;;;;;;7.45;6.75;;;20.80;55.20;;;;;;4997594;28;20208;-79
2023/05/22 00:40:55;;;;;;;7.20;6.60;;;20.80;55.60;;;;;;4997400;28;20200;-79
2023/05/22 00:43:22;;;;;;;7.13;6.53;;;20.80;55.20;;;;;;4997922;28;20333;-79
2023/05/22 00:45:51;;;;;;;7.80;7.10;;;20.80;55.40;;;;;;4997609;28;20251;-80
2023/05/22 00:48:18;;;;;;;7.35;6.65;;;20.80;55.40;;;;;;4997801;28;20251;-80
2023/05/22 00:50:45;;;;;;;8.15;7.40;;;20.80;55.40;;;;;;4997832;28;20291;-80
2023/05/22 00:53:13;;;;;;;7.32;6.72;;;20.80;55.30;;;;;;4997677;28;20216;-80
2023/05/22 00:55:40;;;;;;;8.20;7.40;;;20.80;55.30;;;;;;4997732;28;20201;-80
2023/05/22 00:58:07;;;;;;;7.80;7.10;;;20.80;55.40;;;;;;4997092;28;20205;-80
2023/05/22 01:00:35;;;;;;;7.68;7.07;;;20.80;55.20;;;;;;4981643;28;20201;-79
2023/05/22 01:03:04;;;;;;;8.10;7.35;;;20.70;55.40;;;;;;4996877;28;20247;-79
2023/05/22 01:05:31;;;;;;;7.32;6.70;;;20.70;55.40;;;;;;4996916;28;20228;-79
2023/05/22 01:07:58;;;;;;;7.35;6.75;;;20.70;55.20;;;;;;4996892;28;20200;-79
2023/05/22 01:10:25;;;;;;;7.63;6.82;;;20.70;55.40;;;;;;4997016;28;20266;-79
2023/05/22 01:12:57;;;;;;;7.50;6.80;;;20.70;55.40;;;;;;4997505;28;20220;-79
2023/05/22 01:15:26;;;;;;;7.50;6.80;;;20.70;55.40;;;;;;4980947;28;20208;-79
2023/05/22 01:18:04;;;;;;;7.65;6.95;;;20.70;55.30;;;;;;4996731;28;20211;-79
2023/05/22 01:20:36;;;;;;;7.90;7.20;;;20.70;55.40;;;;;;4996778;28;20227;-79
2023/05/22 01:23:45;;;;;;;7.50;6.80;;;20.60;55.30;;;;;;4996800;28;20243;-79
2023/05/22 01:26:20;;;;;;;7.22;6.53;;;20.60;55.40;;;;;;4980563;28;20287;-79
2023/05/22 01:29:23;;;;;;;6.90;6.30;;;20.60;55.40;;;;;;4997666;28;20279;-79
2023/05/22 01:31:52;;;;;;;7.57;6.95;;;20.60;55.40;;;;;;4996748;28;20227;-79
2023/05/22 01:34:22;;;;;;;7.20;6.50;;;20.60;55.30;;;;;;4981504;28;20251;-79
2023/05/22 01:36:49;;;;;;;7.50;6.90;;;20.60;55.30;;;;;;4996860;28;20239;-79
2023/05/22 01:39:17;;;;;;;7.80;7.10;;;20.60;55.20;;;;;;4998627;28;20239;-79
2023/05/22 01:41:45;;;;;;;7.32;6.72;;;20.60;55.30;;;;;;4997362;28;20266;-79
2023/05/22 01:44:12;;;;;;;7.47;6.88;;;20.60;55.40;;;;;;4997012;28;20196;-79
2023/05/22 01:46:39;;;;;;;7.47;6.88;;;20.60;55.30;;;;;;4996612;28;20208;-79
2023/05/22 01:49:08;;;;;;;7.45;6.75;;;20.60;55.40;;;;;;4996650;28;20577;-79
2023/05/22 01:51:51;;;;;;;7.65;6.80;;;20.60;55.40;;;;;;4996789;28;20238;-80
2023/05/22 01:54:22;;;;;;;7.35;6.75;;;20.60;55.30;;;;;;4996701;28;20200;-79
2023/05/22 01:56:54;;;;;;;7.53;6.82;;;20.50;55.30;;;;;;4996669;28;20633;-79
2023/05/22 01:59:26;;;;;;;7.65;7.05;;;20.50;55.30;;;;;;4997042;28;20185;-79
2023/05/22 02:01:54;;;;;;;7.20;6.55;;;20.50;55.30;;;;;;4982506;28;20221;-79
2023/05/22 02:04:22;;;;;;;7.63;6.78;;;20.50;55.30;;;;;;4998290;28;20205;-79
2023/05/22 02:06:49;;;;;;;7.18;6.57;;;20.50;55.40;;;;;;5012320;28;20197;-80
2023/05/22 02:09:16;;;;;;;7.07;6.45;;;20.50;55.30;;;;;;5013947;28;20205;-80
2023/05/22 02:11:45;;;;;;;7.40;6.70;;;20.50;55.50;;;;;;5004983;28;20220;-80
2023/05/22 02:14:12;;;;;;;7.78;7.07;;;20.50;55.40;;;;;;5000850;28;20197;-80
2023/05/22 02:16:41;;;;;;;7.63;6.93;;;20.50;55.40;;;;;;4997424;28;20203;-80
2023/05/22 02:19:07;;;;;;;7.50;6.90;;;20.50;55.40;;;;;;4996873;28;20199;-80
2023/05/22 02:21:36;;;;;;;7.43;6.82;;;20.50;55.50;;;;;;4997408;28;20232;-80
2023/05/22 02:24:04;;;;;;;7.65;7.05;;;20.40;55.40;;;;;;5014098;28;20535;-80
2023/05/22 02:26:31;;;;;;;7.93;7.15;;;20.40;55.30;;;;;;4997093;28;20200;-80
2023/05/22 02:28:59;;;;;;;7.57;6.97;;;20.40;55.30;;;;;;4996709;28;20197;-80
2023/05/22 02:31:26;;;;;;;7.70;7.00;;;20.40;55.30;;;;;;4996628;28;20221;-80
2023/05/22 02:33:53;;;;;;;7.43;6.72;;;20.40;55.40;;;;;;4997037;28;20223;-80
2023/05/22 02:36:21;;;;;;;7.85;7.15;;;20.40;55.20;;;;;;4999878;28;20287;-80
2023/05/22 02:38:50;;;;;;;8.10;7.30;;;20.40;55.40;;;;;;5001825;28;20247;-80
2023/05/22 02:41:18;;;;;;;6.90;6.38;;;20.40;55.20;;;;;;5000558;28;20589;-80
2023/05/22 02:43:45;;;;;;;7.25;6.63;;;20.40;56.20;;;;;;5000234;28;20589;-80
2023/05/22 02:46:12;;;;;;;7.60;6.90;;;20.40;55.40;;;;;;5001326;28;20254;-80
2023/05/22 02:48:40;;;;;;;7.57;6.88;;;20.40;55.40;;;;;;5000078;28;20288;-80
2023/05/22 02:51:07;;;;;;;7.35;6.72;;;20.40;55.40;;;;;;4999936;28;20224;-80
2023/05/22 02:53:38;;;;;;;8.35;7.00;;;20.40;55.60;;;;;;4999373;28;20217;-80
2023/05/22 02:56:09;;;;;;;7.32;6.72;;;20.40;55.50;;;;;;5017580;28;20181;-80
2023/05/22 02:58:36;;;;;;;7.93;7.22;;;20.40;55.60;;;;;;5000421;28;20185;-80
2023/05/22 03:01:05;;;;;;;7.50;6.85;;;20.30;55.50;;;;;;4999520;28;20623;-80
2023/05/22 03:03:32;;;;;;;7.40;6.80;;;20.30;55.50;;;;;;4999657;28;20212;-80
2023/05/22 03:06:00;;;;;;;7.75;7.05;;;20.30;55.50;;;;;;4999241;28;20656;-80
2023/05/22 03:08:28;;;;;;;7.40;6.78;;;20.30;55.70;;;;;;4999445;28;20203;-80
2023/05/22 03:10:55;;;;;;;7.25;6.60;;;20.40;56.00;;;;;;4999373;28;20239;-80
2023/05/22 03:13:24;;;;;;;7.53;6.85;;;20.30;55.90;;;;;;4999230;28;20711;-80
2023/05/22 03:15:51;;;;;;;6.53;5.97;;;20.40;56.00;;;;;;4998905;28;20690;-79
2023/05/22 03:18:20;;;;;;;6.70;6.07;;;20.40;56.00;;;;;;4983381;28;20723;-79
2023/05/22 03:20:48;;;;;;;6.68;6.07;;;20.40;56.00;;;;;;4998791;28;20251;-79
2023/05/22 03:23:15;;;;;;;7.22;6.53;;;20.40;55.80;;;;;;5016183;28;20292;-79
2023/05/22 03:25:42;;;;;;;6.57;5.97;;;20.40;55.80;;;;;;4998756;28;20659;-79
2023/05/22 03:28:10;;;;;;;7.55;6.95;;;20.50;55.70;;;;;;4998723;28;20247;-79
2023/05/22 03:30:41;;;;;;;6.82;6.32;;;20.50;55.60;;;;;;4999220;28;20738;-79
2023/05/22 03:33:17;;;;;;;6.35;5.85;;;20.50;55.60;;;;;;4998701;28;20227;-79
2023/05/22 03:35:44;;;;;;;7.10;6.50;;;20.60;55.60;;;;;;4998349;28;20228;-79
2023/05/22 03:38:12;;;;;;;6.93;6.32;;;20.60;55.50;;;;;;4998392;28;20255;-79
2023/05/22 03:40:39;;;;;;;6.93;6.35;;;20.60;55.30;;;;;;4998262;28;20591;-79
2023/05/22 03:43:07;;;;;;;6.13;5.53;;;20.60;55.20;;;;;;4982327;28;20720;-79
2023/05/22 03:45:34;;;;;;;6.82;6.18;;;20.70;55.20;;;;;;4998542;28;20287;-79
2023/05/22 03:48:04;;;;;;;7.00;6.30;;;20.70;55.10;;;;;;4998345;28;20212;-79
2023/05/22 03:50:32;;;;;;;6.88;6.28;;;20.70;55.20;;;;;;4998332;28;20291;-79
2023/05/22 03:52:59;;;;;;;6.65;6.15;;;20.70;55.10;;;;;;4998566;28;20312;-79
2023/05/22 03:55:27;;;;;;;6.28;5.78;;;20.80;55.20;;;;;;4998010;28;20655;-79
2023/05/22 03:57:54;;;;;;;6.65;6.15;;;20.80;55.20;;;;;;4998197;28;20275;-79
2023/05/22 04:00:21;;;;;;;6.90;6.30;;;20.80;55.10;;;;;;4998622;28;20201;-79
2023/05/22 04:02:49;;;;;;;7.07;6.47;;;20.80;55.00;;;;;;4999713;28;20766;-80
2023/05/22 04:05:18;;;;;;;6.57;5.97;;;20.80;54.90;;;;;;4985099;28;20310;-80
2023/05/22 04:07:45;;;;;;;7.45;6.85;;;20.80;55.00;;;;;;4983802;28;20292;-81
2023/05/22 04:10:12;;;;;;;7.03;6.43;;;20.80;54.90;;;;;;5017875;28;20674;-80
2023/05/22 04:12:39;;;;;;;6.40;5.90;;;20.80;55.00;;;;;;4984314;28;20687;-81
2023/05/22 04:15:09;;;;;;;6.88;6.28;;;20.90;55.00;;;;;;5000361;28;20228;-81
2023/05/22 04:17:39;;;;;;;6.88;6.28;;;20.80;54.90;;;;;;5000981;28;20280;-81
2023/05/22 04:20:08;;;;;;;6.97;6.38;;;20.80;54.90;;;;;;4999280;28;20594;-81
2023/05/22 04:22:38;;;;;;;6.25;5.75;;;20.90;55.00;;;;;;4985373;28;20224;-81
2023/05/22 04:25:06;;;;;;;7.15;6.55;;;20.80;55.50;;;;;;4999054;28;20689;-80
2023/05/22 04:27:34;;;;;;;6.90;6.30;;;20.90;54.90;;;;;;4999046;28;20647;-81
2023/05/22 04:30:02;;;;;;;6.68;6.07;;;20.90;54.90;;;;;;5000131;28;20292;-80
2023/05/22 04:32:29;;;;;;;7.25;6.57;;;20.90;54.80;;;;;;5000870;28;20212;-81
2023/05/22 04:34:59;;;;;;;7.20;6.50;;;20.90;54.80;;;;;;5001001;28;20208;-80
2023/05/22 04:37:27;;;;;;;7.65;6.80;;;21.00;54.90;;;;;;5001853;28;20197;-82
2023/05/22 04:40:06;;;;;;;6.97;6.38;;;21.00;54.90;;;;;;5001802;28;20209;-81
2023/05/22 04:42:33;;;;;;;8.45;7.50;;;21.00;55.00;;;;;;5000623;28;20243;-81
2023/05/22 04:45:00;;;;;;;7.78;7.15;;;21.00;55.30;;;;;;5000137;28;20197;-81
2023/05/22 04:47:27;;;;;;;7.80;7.00;;;21.10;55.40;;;;;;5017547;23;20769;-83
2023/05/22 04:49:55;;;;;;;8.10;7.40;;;21.10;55.10;;;;;;5021753;28;20239;-83
2023/05/22 04:52:23;;;;;;;7.15;6.53;;;21.20;55.00;;;;;;5004849;28;20286;-83
2023/05/22 04:54:51;;;;;;;7.38;6.78;;;21.30;55.10;;;;;;5005450;28;20219;-83
2023/05/22 04:57:21;;;;;;;7.13;6.53;;;21.30;54.90;;;;;;5006924;28;20201;-83
2023/05/22 04:59:48;;;;;;;7.78;7.18;;;21.40;54.90;;;;;;5000866;28;20201;-83
2023/05/22 05:02:16;;;;;;;7.53;6.82;;;21.50;54.90;;;;;;4998282;28;20240;-82
2023/05/22 05:04:43;;;;;;;7.72;7.03;;;21.60;54.70;;;;;;4999134;28;20255;-82
2023/05/22 05:07:12;;;;;;;7.53;6.82;;;21.60;54.50;;;;;;4999324;28;20201;-83
2023/05/22 05:09:39;;;;;;;7.40;6.70;;;21.70;54.40;;;;;;4998708;28;20621;-83
2023/05/22 05:12:07;;;;;;;7.78;7.03;;;21.80;54.40;;;;;;4998696;28;20224;-82
2023/05/22 05:14:37;;;;;;;7.28;6.57;;;21.90;54.30;;;;;;4998574;28;20286;-82
2023/05/22 05:17:05;;;;;;;7.90;7.20;;;22.00;54.10;;;;;;5001489;28;20255;-82
2023/05/22 05:19:33;;;;;;;7.53;6.38;;;22.10;54.10;;;;;;4997595;28;20204;-81
2023/05/22 05:22:00;;;;;;;7.80;7.10;;;22.20;53.90;;;;;;4997469;28;20244;-82
2023/05/22 05:24:27;;;;;;;7.63;6.80;;;22.30;53.60;;;;;;4998073;28;20197;-82
2023/05/22 05:26:55;;;;;;;7.93;7.13;;;22.40;53.30;;;;;;4981721;28;20671;-82
2023/05/22 05:29:22;;;;;;;7.68;6.72;;;22.40;53.20;;;;;;4997859;28;20203;-82
2023/05/22 05:31:58;;;;;;;6.80;6.20;;;22.60;52.80;;;;;;4997817;28;20241;-82
2023/05/22 05:34:51;;;;;;;6.95;6.32;;;22.60;52.60;;;;;;5013120;28;20729;-82
2023/05/22 05:37:23;;;;;;;7.35;6.75;;;22.70;52.40;;;;;;4981255;28;20185;-82
2023/05/22 05:39:51;;;;;;;7.03;6.43;;;22.80;52.20;;;;;;4981166;28;20216;-82
2023/05/22 05:42:18;;;;;;;7.13;6.53;;;22.80;52.00;;;;;;4997407;28;20221;-82
2023/05/22 05:44:47;;;;;;;6.50;6.00;;;22.80;51.80;;;;;;4998027;28;20197;-82
2023/05/22 05:47:16;;;;;;;7.35;6.65;;;22.90;51.80;;;;;;4997402;28;20675;-81
2023/05/22 05:49:44;;;;;;;7.78;6.97;;;22.90;52.20;;;;;;4997336;28;20247;-81
2023/05/22 05:52:13;;;;;;;6.55;5.97;;;23.00;51.40;;;;;;4997708;28;20275;-82
2023/05/22 05:54:45;;;;;;;7.95;6.35;;;23.10;51.30;;;;;;4997904;28;20687;-82
2023/05/22 05:57:15;;;;;;;7.82;7.13;;;23.20;51.20;;;;;;4997894;28;20196;-81
2023/05/22 05:59:43;;;;;;;6.93;6.07;;;23.30;51.30;;;;;;4998205;28;20199;-81
2023/05/22 06:02:44;;;;;;;6.63;6.10;;;23.40;51.10;;;;;;5015467;28;20354;-81
2023/05/22 06:05:34;;;;;;;6.28;5.78;;;23.50;51.00;;;;;;5005057;28;20223;-81
2023/05/22 06:08:27;;;;;;;6.85;5.90;;;23.50;50.80;;;;;;4997631;28;20247;-81
2023/05/22 06:10:54;;;;;;;6.40;5.90;;;23.60;50.60;;;;;;5000295;28;20197;-81
2023/05/22 06:13:33;;;;;;;6.55;5.95;;;23.70;50.20;;;;;;5000687;28;20279;-82
2023/05/22 06:16:01;;;;;;;5.97;5.47;;;23.70;50.10;;;;;;5001138;28;20287;-82
2023/05/22 06:18:29;;;;;;;6.07;5.57;;;23.80;50.00;;;;;;5000969;28;20208;-82
2023/05/22 06:20:58;;;;;;;6.18;5.57;;;23.80;49.80;;;;;;5002644;28;20193;-83
2023/05/22 06:23:25;;;;;;;6.90;5.93;;;23.90;49.80;;;;;;5001725;28;20197;-82
2023/05/22 06:25:54;;;;;;;6.18;5.68;;;24.00;50.20;;;;;;5001489;28;20319;-81
2023/05/22 06:28:22;;;;;;;6.18;5.68;;;24.00;49.40;;;;;;5001082;28;20224;-81
2023/05/22 06:30:49;;;;;;;6.18;5.35;;;24.10;49.10;;;;;;5000878;28;20279;-81
2023/05/22 06:33:19;;;;;;;5.90;5.40;;;24.20;49.10;;;;;;5001404;28;20189;-81
2023/05/22 06:35:48;;;;;;;6.00;5.50;;;24.20;49.00;;;;;;5000244;28;20283;-81
2023/05/22 06:38:16;;;;;;;5.43;4.93;;;24.30;48.90;;;;;;5000127;28;20228;-81
2023/05/22 06:40:44;;;;;;;5.70;5.30;;;24.30;48.60;;;;;;5000774;28;20239;-81
2023/05/22 06:43:16;;;;;;;6.47;5.90;;;24.30;48.30;;;;;;5001023;28;20203;-81
2023/05/22 06:45:49;;;;;;;5.80;5.40;;;24.50;48.20;;;;;;5000590;28;20220;-82
2023/05/22 06:48:22;;;;;;;6.13;5.53;;;24.60;48.10;;;;;;5019295;28;20187;-82
2023/05/22 06:51:15;;;;;;;6.07;5.57;;;24.60;48.00;;;;;;4975624;28;20271;-82
2023/05/22 06:53:42;;;;;;;6.40;5.90;;;24.70;47.90;;;;;;5001059;28;20212;-82
2023/05/22 06:56:17;;;;;;;5.80;5.30;;;24.70;47.70;;;;;;5001057;28;20254;-82
2023/05/22 06:58:58;;;;;;;5.88;5.38;;;24.80;47.70;;;;;;5001224;28;20210;-82
2023/05/22 07:01:52;;;;;;;5.75;5.25;;;24.90;47.60;;;;;;5001376;28;20715;-82
2023/05/22 07:04:27;;;;;;;5.80;5.15;;;24.90;47.40;;;;;;4986258;28;20196;-82
2023/05/22 07:07:04;;;;;;;5.85;5.40;;;24.90;47.40;;;;;;5000194;28;20200;-82
2023/05/22 07:09:33;;;;;;;6.32;5.72;;;25.00;47.30;;;;;;4999725;28;20196;-82
2023/05/22 07:12:02;;;;;;;5.60;5.15;;;25.10;47.30;;;;;;4999710;28;20687;-82
2023/05/22 07:14:29;;;;;;;6.35;5.70;;;25.10;47.10;;;;;;5000129;28;20228;-82
2023/05/22 07:16:56;;;;;;;6.30;5.70;;;25.10;47.00;;;;;;5000682;28;20201;-82
2023/05/22 07:19:28;;;;;;;5.50;5.10;;;25.10;46.90;;;;;;5000042;28;20224;-82
2023/05/22 07:21:58;;;;;;;6.57;5.97;;;25.20;46.80;;;;;;5000171;28;20213;-82
2023/05/22 07:24:28;;;;;;;5.90;5.30;;;25.20;46.70;;;;;;5000322;28;20197;-82
2023/05/22 07:26:55;;;;;;;5.78;5.35;;;25.30;46.70;;;;;;5000273;28;20208;-82
2023/05/22 07:29:22;;;;;;;5.40;4.90;;;25.40;46.60;;;;;;5000572;28;20196;-82
2023/05/22 07:31:51;;;;;;;5.65;5.25;;;25.40;46.40;;;;;;5000071;28;20722;-82
2023/05/22 07:34:18;;;;;;;5.93;5.38;;;25.40;46.40;;;;;;5001129;28;20232;-82
2023/05/22 07:36:45;;;;;;;6.00;5.50;;;25.50;46.20;;;;;;4999882;28;20235;-82
2023/05/22 07:39:14;;;;;;;6.07;5.57;;;25.50;46.10;;;;;;5000232;28;20283;-82
2023/05/22 07:41:48;;;;;;;5.57;5.07;;;25.60;46.00;;;;;;4999738;28;20217;-81
2023/05/22 07:44:15;;;;;;;6.03;5.53;;;25.60;46.50;;;;;;5000620;28;20184;-81
2023/05/22 07:46:43;;;;;;;6.05;5.55;;;25.60;45.80;;;;;;5000066;28;20208;-81
2023/05/22 07:49:18;;;;;;;6.38;5.80;;;25.70;45.70;;;;;;5000990;28;20283;-81
2023/05/22 07:51:45;;;;;;;5.75;5.32;;;25.70;45.60;;;;;;4999898;28;20216;-82
2023/05/22 07:54:15;;;;;;;5.53;5.03;;;25.70;45.60;;;;;;4999854;28;20212;-81
2023/05/22 07:56:46;;;;;;;6.10;5.60;;;25.80;45.60;;;;;;4999896;28;20724;-81
2023/05/22 07:59:18;;;;;;;5.78;5.28;;;25.80;45.50;;;;;;4983798;28;20698;-81
2023/05/22 08:01:45;;;;;;;5.65;5.25;;;25.80;45.30;;;;;;4999511;28;20255;-81
2023/05/22 08:04:13;;;;;;;5.97;5.47;;;25.90;45.30;;;;;;4999248;28;20224;-81
2023/05/22 08:06:40;;;;;;;5.88;5.38;;;25.90;45.20;;;;;;4999020;28;20203;-81
2023/05/22 08:09:08;;;;;;;6.03;5.53;;;25.90;45.20;;;;;;4998999;28;20200;-82
2023/05/22 08:11:36;;;;;;;5.95;5.55;;;25.90;45.20;;;;;;5017226;28;20214;-82
2023/05/22 08:14:04;;;;;;;5.90;5.45;;;25.80;45.30;;;;;;4999335;28;20749;-82
2023/05/22 08:16:32;;;;;;;5.80;5.30;;;25.70;45.50;;;;;;4999398;28;20246;-81
2023/05/22 08:18:59;;;;;;;5.80;5.30;;;25.60;45.60;;;;;;4999555;28;20200;-82
2023/05/22 08:21:26;;;;;;;5.50;5.10;;;25.50;45.80;;;;;;4987808;28;20227;-82
2023/05/22 08:23:54;;;;;;;5.53;5.13;;;25.40;46.10;;;;;;4998310;28;20192;-82
2023/05/22 08:26:25;;;;;;;6.47;5.97;;;25.30;46.30;;;;;;4999187;28;20204;-82
2023/05/22 08:28:52;;;;;;;5.68;5.18;;;25.20;46.50;;;;;;5009052;28;20598;-82
2023/05/22 08:31:21;;;;;;;6.07;5.50;;;25.20;46.60;;;;;;4986200;28;20654;-82
2023/05/22 08:33:48;;;;;;;6.22;5.72;;;25.20;46.60;;;;;;5000482;28;20200;-82
2023/05/22 08:36:15;;;;;;;5.88;5.28;;;25.40;46.50;;;;;;5001509;28;20228;-82
2023/05/22 08:38:43;;;;;;;5.35;4.95;;;25.40;46.20;;;;;;5000346;28;20207;-81
2023/05/22 08:41:10;;;;;;;6.85;5.53;;;25.40;46.40;;;;;;5000652;28;20217;-82
2023/05/22 08:43:37;;;;;;;5.32;4.93;;;25.50;46.10;;;;;;5000927;28;20192;-82
2023/05/22 08:46:07;;;;;;;5.85;5.32;;;25.50;46.00;;;;;;5001241;28;20199;-82
2023/05/22 08:48:36;;;;;;;5.88;5.38;;;25.50;46.10;;;;;;5018918;28;20177;-82
2023/05/22 08:51:04;;;;;;;6.18;5.65;;;25.50;46.20;;;;;;5002620;28;20196;-82
2023/05/22 08:53:33;;;;;;;5.80;5.40;;;25.50;46.30;;;;;;4999033;28;20623;-82
2023/05/22 08:56:00;;;;;;;5.55;5.15;;;25.40;46.20;;;;;;4999427;28;20255;-82
2023/05/22 08:58:28;;;;;;;5.88;5.40;;;25.50;46.30;;;;;;4983446;28;20297;-82
2023/05/22 09:00:55;;;;;;;5.88;5.38;;;25.50;46.20;;;;;;4998830;28;20227;-82
2023/05/22 09:03:22;;;;;;;6.43;5.93;;;25.50;46.00;;;;;;4998908;28;20208;-82
2023/05/22 09:05:51;;;;;;;5.85;5.35;;;25.60;45.90;;;;;;4999203;28;20196;-82
2023/05/22 09:08:18;;;;;;;6.00;5.50;;;25.60;45.90;;;;;;4982537;28;20200;-82
2023/05/22 09:10:45;;;;;;;5.90;5.40;;;25.60;45.70;;;;;;4998572;28;20655;-82
2023/05/22 09:13:26;;;;;;;5.88;5.28;;;25.60;45.80;;;;;;4999687;28;20196;-82
2023/05/22 09:15:53;;;;;;;5.90;5.40;;;25.60;46.00;;;;;;5000912;28;20207;-82
2023/05/22 09:18:21;;;;;;;5.90;5.40;;;25.60;46.00;;;;;;5000758;28;20208;-82
2023/05/22 09:20:48;;;;;;;5.80;5.40;;;25.60;45.90;;;;;;4984222;28;20243;-82
2023/05/22 09:23:18;;;;;;;5.45;5.05;;;25.70;45.80;;;;;;4999074;28;20274;-82
2023/05/22 09:25:46;;;;;;;6.10;5.60;;;25.80;45.70;;;;;;4984379;28;20196;-82
2023/05/22 09:28:13;;;;;;;5.75;5.25;;;25.80;45.50;;;;;;4999171;28;20204;-82
2023/05/22 09:30:40;;;;;;;5.18;4.78;;;25.90;45.30;;;;;;4999391;28;20191;-82
2023/05/22 09:33:08;;;;;;;5.63;5.18;;;25.90;45.20;;;;;;4998797;28;20254;-82
2023/05/22 09:35:35;;;;;;;5.80;5.00;;;26.00;45.00;;;;;;4999813;28;20222;-82
2023/05/22 09:38:03;;;;;;;5.55;5.13;;;26.00;44.90;;;;;;4998934;28;20201;-82
2023/05/22 09:40:33;;;;;;;5.78;5.28;;;26.10;45.00;;;;;;4998390;28;20291;-82
2023/05/22 09:43:01;;;;;;;5.80;5.40;;;26.10;45.00;;;;;;4998594;28;20220;-82
2023/05/22 09:45:28;;;;;;;6.10;5.50;;;26.10;44.90;;;;;;5002567;28;20651;-83
2023/05/22 09:47:56;;;;;;;5.70;5.20;;;26.10;44.90;;;;;;5002295;28;20254;-82
2023/05/22 09:50:23;;;;;;;5.78;5.28;;;26.10;45.00;;;;;;5002741;28;20230;-82
2023/05/22 09:52:51;;;;;;;6.13;5.63;;;26.10;45.00;;;;;;5002743;28;20589;-82
2023/05/22 09:55:18;;;;;;;6.15;5.32;;;26.00;44.90;;;;;;5002431;28;20234;-81
2023/05/22 09:57:48;;;;;;;5.53;5.13;;;26.10;45.00;;;;;;5001521;28;20203;-82
2023/05/22 10:00:18;;;;;;;5.95;5.50;;;26.00;44.90;;;;;;5001944;28;20189;-81
2023/05/22 10:02:47;;;;;;;5.97;5.47;;;26.00;44.90;;;;;;5002412;28;20690;-82
2023/05/22 10:05:20;;;;;;;6.10;5.60;;;26.00;44.90;;;;;;5002241;28;20207;-82
2023/05/22 10:07:48;;;;;;;5.72;5.22;;;26.00;45.00;;;;;;5001640;28;20200;-81
2023/05/22 10:10:16;;;;;;;6.05;5.55;;;26.00;45.00;;;;;;5002356;28;20196;-82
2023/05/22 10:12:45;;;;;;;5.60;5.20;;;26.00;45.00;;;;;;5002607;28;20220;-82
2023/05/22 10:15:13;;;;;;;5.97;5.47;;;26.00;45.00;;;;;;5001411;28;20242;-82
2023/05/22 10:17:41;;;;;;;5.90;5.40;;;26.00;45.00;;;;;;5001614;28;20196;-82
2023/05/22 10:20:09;;;;;;;5.90;5.50;;;26.00;45.10;;;;;;5001395;28;20215;-82
2023/05/22 10:22:37;;;;;;;5.90;5.40;;;26.00;45.10;;;;;;5000993;28;20211;-82
2023/05/22 10:25:04;;;;;;;6.15;5.65;;;26.00;45.10;;;;;;5000530;28;20200;-81
2023/05/22 10:27:31;;;;;;;5.97;5.47;;;26.00;45.10;;;;;;5000644;28;20207;-82
2023/05/22 10:30:02;;;;;;;5.95;5.50;;;25.90;45.10;;;;;;5000515;28;20207;-82
2023/05/22 10:32:39;;;;;;;6.00;5.50;;;26.00;45.10;;;;;;5000511;28;20233;-82
2023/05/22 10:35:10;;;;;;;5.82;5.32;;;25.90;45.10;;;;;;5000361;28;20212;-82
2023/05/22 10:37:45;;;;;;;5.80;5.40;;;25.90;45.10;;;;;;5000341;28;20196;-82
2023/05/22 10:40:14;;;;;;;5.80;5.30;;;26.00;45.10;;;;;;5000159;28;20200;-83
2023/05/22 10:42:41;;;;;;;5.72;5.32;;;26.00;45.20;;;;;;5000054;28;20220;-82
2023/05/22 10:45:09;;;;;;;5.82;5.32;;;25.90;45.10;;;;;;5000419;28;20196;-82
2023/05/22 10:47:37;;;;;;;6.05;5.55;;;25.90;45.20;;;;;;5045147;22;20725;-80
2023/05/22 10:50:07;;;;;;;5.60;5.10;;;25.90;45.30;;;;;;4999622;28;20207;-80
2023/05/22 10:52:34;;;;;;;5.93;5.43;;;25.80;46.00;;;;;;4983287;28;20222;-80
2023/05/22 10:55:01;;;;;;;5.35;4.95;;;25.80;45.50;;;;;;4998857;28;20579;-80
2023/05/22 10:57:33;;;;;;;5.57;5.18;;;25.70;45.60;;;;;;4999607;28;20200;-80
2023/05/22 11:00:11;;;;;;;5.32;4.93;;;25.60;45.70;;;;;;4999582;28;20266;-79
2023/05/22 11:02:44;;;;;;;6.07;5.57;;;25.60;45.90;;;;;;4999497;28;20208;-79
2023/05/22 11:05:35;;;;;;;5.45;5.05;;;25.60;46.10;;;;;;5000036;28;20192;-79
2023/05/22 11:08:37;;;;;;;6.10;5.60;;;25.50;46.20;;;;;;4999984;28;20196;-79
2023/05/22 11:11:12;;;;;;;5.95;5.45;;;25.40;46.30;;;;;;4999653;28;20290;-79
2023/05/22 11:13:40;;;;;;;6.22;5.72;;;25.40;46.40;;;;;;4984003;28;20196;-79
2023/05/22 11:16:09;;;;;;;5.90;5.40;;;25.40;46.40;;;;;;4999582;28;20212;-79
2023/05/22 11:18:37;;;;;;;6.18;5.68;;;25.40;46.50;;;;;;5000606;28;20238;-79
2023/05/22 11:21:04;;;;;;;5.93;5.32;;;25.40;46.60;;;;;;5017269;28;20730;-79
2023/05/22 11:23:34;;;;;;;5.97;5.40;;;25.30;46.60;;;;;;4999819;28;20711;-79
2023/05/22 11:26:17;;;;;;;5.78;5.28;;;25.30;46.70;;;;;;4999138;28;20216;-79
2023/05/22 11:28:47;;;;;;;5.80;5.40;;;25.30;46.70;;;;;;5000487;28;20198;-79
2023/05/22 11:31:15;;;;;;;5.85;5.35;;;25.30;46.70;;;;;;5000077;28;20239;-79
2023/05/22 11:33:43;;;;;;;5.45;5.05;;;25.30;46.70;;;;;;5000172;28;20291;-79
2023/05/22 11:36:10;;;;;;;5.80;5.30;;;25.30;46.80;;;;;;5000737;28;20224;-79
2023/05/22 11:38:37;;;;;;;6.30;5.80;;;25.30;46.80;;;;;;5000421;28;20200;-79
2023/05/22 11:41:05;;;;;;;6.20;5.70;;;25.30;46.80;;;;;;5000207;28;20203;-79
2023/05/22 11:43:33;;;;;;;5.95;5.50;;;25.30;46.90;;;;;;5000673;28;20208;-79
2023/05/22 11:46:01;;;;;;;5.97;5.47;;;25.20;46.80;;;;;;5000710;28;20246;-79
2023/05/22 11:48:29;;;;;;;6.00;5.50;;;25.30;46.90;;;;;;5000887;28;20224;-79
2023/05/22 11:50:58;;;;;;;5.72;5.22;;;25.30;46.90;;;;;;5000658;28;20574;-79
2023/05/22 11:53:25;;;;;;;5.82;5.35;;;25.30;46.90;;;;;;5000760;28;20211;-79
2023/05/22 11:55:52;;;;;;;5.90;5.40;;;25.30;46.90;;;;;;5000206;28;20220;-79
2023/05/22 11:58:22;;;;;;;5.75;5.25;;;25.20;46.90;;;;;;4998286;28;20207;-79
2023/05/22 12:00:49;;;;;;;6.03;5.53;;;25.30;46.90;;;;;;4998215;28;20200;-79
2023/05/22 12:03:17;;;;;;;5.78;5.35;;;25.30;46.90;;;;;;4998600;28;20228;-79
2023/05/22 12:05:46;;;;;;;5.80;5.30;;;25.30;46.90;;;;;;4982926;28;20196;-80
2023/05/22 12:08:14;;;;;;;5.80;5.30;;;25.30;46.90;;;;;;4997615;28;20197;-81
2023/05/22 12:10:47;;;;;;;5.57;5.18;;;25.30;47.00;;;;;;4999014;28;20196;-81
2023/05/22 12:13:14;;;;;;;6.50;6.00;;;25.30;47.00;;;;;;5000467;28;20681;-80
2023/05/22 12:15:41;;;;;;;5.80;5.40;;;25.30;47.00;;;;;;5001068;28;20219;-80
2023/05/22 12:18:09;;;;;;;5.93;5.43;;;25.30;47.00;;;;;;4999792;28;20197;-80
2023/05/22 12:20:36;;;;;;;5.97;5.50;;;25.30;47.10;;;;;;5000548;28;20203;-80
2023/05/22 12:23:02;;;;;;;6.10;5.68;;;25.30;47.10;;;;;;4999494;28;20220;-80
2023/05/22 12:25:35;;;;;;;6.10;5.60;;;25.30;47.10;;;;;;5000101;28;20639;-80
2023/05/22 12:28:02;;;;;;;5.65;5.20;;;25.30;47.10;;;;;;4998621;28;20224;-80
2023/05/22 12:30:39;;;;;;;5.88;5.40;;;25.30;47.10;;;;;;5000658;28;20330;-80
2023/05/22 12:33:12;;;;;;;5.47;5.07;;;25.30;47.10;;;;;;5001618;28;20216;-80
2023/05/22 12:35:39;;;;;;;6.30;5.80;;;25.20;47.10;;;;;;5001092;28;20639;-80
2023/05/22 12:38:08;;;;;;;5.75;5.25;;;25.30;47.10;;;;;;5001028;28;20203;-80
2023/05/22 12:40:36;;;;;;;5.72;5.28;;;25.30;47.10;;;;;;5001055;28;20274;-80
2023/05/22 12:43:03;;;;;;;6.07;5.57;;;25.20;47.10;;;;;;5001297;28;20222;-80
2023/05/22 12:45:30;;;;;;;6.15;5.65;;;25.20;47.10;;;;;;5001382;28;20670;-80
2023/05/22 12:47:57;;;;;;;5.90;5.50;;;25.30;47.30;;;;;;5002088;28;20230;-80
2023/05/22 12:50:24;;;;;;;5.55;5.15;;;25.20;47.20;;;;;;5002641;28;20255;-80
2023/05/22 12:52:51;;;;;;;5.78;5.28;;;25.30;47.30;;;;;;5002298;28;20236;-80
2023/05/22 12:55:18;;;;;;;5.55;5.15;;;25.30;47.30;;;;;;4999710;28;20227;-79
2023/05/22 12:57:46;;;;;;;5.90;5.32;;;25.30;47.30;;;;;;5001932;28;20694;-79
2023/05/22 13:00:14;;;;;;;6.03;5.43;;;25.30;47.30;;;;;;5004349;28;20203;-79